createdAt,value
2022-09-24T00:01:22.109Z,17.90
2022-09-24T00:04:13.288Z,16.00
2022-09-24T00:07:04.077Z,16.40
2022-09-24T00:09:54.593Z,16.50
2022-09-24T00:12:44.877Z,16.40
2022-09-24T00:15:38.287Z,16.50
2022-09-24T00:18:29.201Z,16.90
2022-09-24T00:21:21.356Z,16.20
2022-09-24T00:24:35.071Z,16.90
2022-09-24T00:27:25.393Z,16.90
2022-09-24T00:30:15.964Z,15.50
2022-09-24T00:33:06.606Z,16.80
2022-09-24T00:36:02.676Z,15.60
2022-09-24T00:41:47.372Z,15.40
2022-09-24T00:44:53.555Z,16.00
2022-09-24T00:47:45.137Z,14.80
2022-09-24T00:50:36.413Z,15.40
2022-09-24T00:53:28.710Z,15.10
2022-09-24T00:56:20.135Z,15.90
2022-09-24T00:59:16.361Z,15.00
2022-09-24T01:02:07.054Z,15.50
2022-09-24T01:04:57.353Z,14.50
2022-09-24T01:07:48.219Z,14.50
2022-09-24T01:10:51.275Z,15.00
2022-09-24T01:14:04.466Z,15.20
2022-09-24T01:16:58.429Z,15.40
2022-09-24T01:20:23.052Z,14.50
2022-09-24T01:23:48.582Z,14.20
2022-09-24T01:26:50.604Z,15.10
2022-09-24T01:29:58.518Z,14.30
2022-09-24T01:32:52.445Z,13.90
2022-09-24T01:35:44.497Z,14.80
2022-09-24T01:38:38.150Z,13.70
2022-09-24T01:41:28.455Z,13.40
2022-09-24T01:44:18.767Z,14.30
2022-09-24T01:47:09.036Z,14.60
2022-09-24T01:50:00.947Z,13.50
2022-09-24T01:52:53.660Z,13.40
2022-09-24T01:55:47.591Z,13.80
2022-09-24T01:58:40.421Z,14.40
2022-09-24T02:01:33.577Z,13.60
2022-09-24T02:04:24.249Z,14.10
2022-09-24T02:07:18.807Z,14.10
2022-09-24T02:10:15.993Z,14.80
2022-09-24T02:13:09.915Z,14.20
2022-09-24T02:16:02.118Z,14.40
2022-09-24T02:18:54.509Z,15.40
2022-09-24T02:21:45.673Z,14.80
2022-09-24T02:24:40.215Z,15.20
2022-09-24T02:27:30.440Z,15.50
2022-09-24T02:30:20.799Z,15.00
2022-09-24T02:33:31.552Z,15.30
2022-09-24T02:36:24.421Z,15.10
2022-09-24T02:39:16.837Z,16.90
2022-09-24T02:42:07.475Z,15.80
2022-09-24T02:44:58.760Z,15.50
2022-09-24T02:47:49.029Z,16.00
2022-09-24T02:50:39.345Z,17.10
2022-09-24T02:53:30.278Z,16.80
2022-09-24T02:56:20.571Z,18.10
2022-09-24T02:59:11.717Z,17.80
2022-09-24T03:02:02.088Z,18.50
2022-09-24T03:04:52.701Z,18.30
2022-09-24T03:07:43.290Z,19.10
2022-09-24T03:10:34.481Z,19.20
2022-09-24T03:13:25.492Z,19.70
2022-09-24T03:16:15.976Z,19.20
2022-09-24T03:19:06.968Z,20.30
2022-09-24T03:21:57.274Z,21.50
2022-09-24T03:24:48.261Z,21.00
2022-09-24T03:27:38.682Z,21.30
2022-09-24T03:30:47.351Z,22.50
2022-09-24T03:33:39.167Z,23.00
2022-09-24T03:36:29.629Z,24.20
2022-09-24T03:39:20.011Z,24.50
2022-09-24T03:42:10.550Z,24.40
2022-09-24T03:45:01.464Z,24.70
2022-09-24T03:47:51.711Z,25.70
2022-09-24T03:50:42.008Z,25.80
2022-09-24T03:53:32.309Z,26.70
2022-09-24T03:56:23.758Z,27.10
2022-09-24T03:59:14.027Z,27.80
2022-09-24T04:02:04.349Z,28.10
2022-09-24T04:04:54.946Z,28.00
2022-09-24T04:07:45.373Z,28.80
2022-09-24T04:10:35.368Z,28.30
2022-09-24T04:13:25.740Z,28.90
2022-09-24T04:16:16.093Z,28.50
2022-09-24T04:19:07.221Z,29.20
2022-09-24T04:21:57.520Z,29.60
2022-09-24T04:24:47.811Z,29.20
2022-09-24T04:27:39.104Z,28.30
2022-09-24T04:30:29.937Z,29.50
2022-09-24T04:33:20.253Z,29.20
2022-09-24T04:36:10.765Z,28.90
2022-09-24T04:39:02.738Z,29.10
2022-09-24T04:41:53.061Z,26.90
2022-09-24T04:44:47.221Z,28.30
2022-09-24T04:47:40.082Z,27.70
2022-09-24T04:50:32.588Z,27.90
2022-09-24T04:53:22.997Z,27.30
2022-09-24T04:56:13.906Z,27.60
2022-09-24T04:59:05.123Z,27.90
2022-09-24T05:01:55.608Z,26.90
2022-09-24T05:04:46.187Z,26.90
2022-09-24T05:07:36.516Z,26.90
2022-09-24T05:10:26.925Z,26.90
2022-09-24T05:13:17.224Z,26.00
2022-09-24T05:16:08.143Z,25.40
2022-09-24T05:18:58.865Z,25.60
2022-09-24T05:21:49.544Z,24.90
2022-09-24T05:24:40.028Z,25.20
2022-09-24T05:27:30.418Z,24.00
2022-09-24T05:30:23.102Z,23.70
2022-09-24T05:33:13.743Z,23.70
2022-09-24T05:36:04.632Z,23.70
2022-09-24T05:38:56.469Z,23.50
2022-09-24T05:41:47.101Z,23.50
2022-09-24T05:44:37.657Z,23.40
2022-09-24T05:47:27.964Z,22.80
2022-09-24T05:50:18.354Z,22.50
2022-09-24T05:53:09.263Z,22.70
2022-09-24T05:55:59.645Z,19.70
2022-09-24T05:58:51.120Z,18.30
2022-09-24T06:01:41.718Z,17.90
2022-09-24T06:04:32.235Z,18.40
2022-09-24T06:07:23.274Z,16.50
2022-09-24T06:10:13.749Z,17.00
2022-09-24T06:13:07.289Z,17.20
2022-09-24T06:16:04.036Z,15.90
2022-09-24T06:18:54.440Z,17.30
2022-09-24T06:21:44.704Z,16.70
2022-09-24T06:24:35.103Z,15.50
2022-09-24T06:27:25.474Z,15.50
2022-09-24T06:30:16.089Z,18.60
2022-09-24T06:33:09.137Z,17.00
2022-09-24T06:36:03.239Z,16.80
2022-09-24T06:38:53.996Z,15.80
2022-09-24T06:41:46.998Z,16.90
2022-09-24T06:44:37.993Z,19.50
2022-09-24T06:47:29.590Z,15.80
2022-09-24T06:50:19.872Z,17.50
2022-09-24T06:53:10.445Z,16.10
2022-09-24T06:56:02.971Z,15.70
2022-09-24T06:58:53.913Z,14.80
2022-09-24T07:01:44.264Z,14.60
2022-09-24T07:04:34.977Z,14.80
2022-09-24T07:07:32.733Z,16.00
2022-09-24T07:10:26.041Z,15.00
2022-09-24T07:13:16.514Z,17.10
2022-09-24T07:16:07.595Z,17.20
2022-09-24T07:18:58.453Z,13.80
2022-09-24T07:21:48.713Z,14.20
2022-09-24T07:24:39.641Z,14.30
2022-09-24T07:27:30.190Z,13.20
2022-09-24T07:30:20.950Z,14.50
2022-09-24T07:33:11.400Z,14.70
2022-09-24T07:36:06.542Z,12.20
2022-09-24T07:38:57.600Z,15.10
2022-09-24T07:41:47.918Z,13.40
2022-09-24T07:44:38.220Z,13.80
2022-09-24T07:47:28.544Z,13.00
2022-09-24T07:50:20.756Z,13.20
2022-09-24T07:53:12.176Z,13.30
2022-09-24T07:56:03.729Z,12.80
2022-09-24T07:58:54.073Z,12.60
2022-09-24T08:01:44.406Z,13.20
2022-09-24T08:04:35.701Z,11.50
2022-09-24T08:07:26.034Z,13.40
2022-09-24T08:10:16.494Z,12.00
2022-09-24T08:13:06.809Z,12.60
2022-09-24T08:16:01.240Z,12.00
2022-09-24T08:18:52.204Z,11.90
2022-09-24T08:21:42.472Z,12.60
2022-09-24T08:24:32.756Z,11.60
2022-09-24T08:27:24.680Z,10.50
2022-09-24T08:30:16.162Z,11.70
2022-09-24T08:33:07.933Z,11.50
2022-09-24T08:35:59.797Z,11.50
2022-09-24T08:38:50.259Z,10.70
2022-09-24T08:41:56.702Z,10.70
2022-09-24T08:47:57.290Z,10.00
2022-09-24T08:50:51.038Z,10.60
2022-09-24T08:53:48.173Z,11.00
2022-09-24T08:56:41.710Z,10.90
2022-09-24T08:59:33.003Z,11.20
2022-09-24T09:02:41.268Z,10.40
2022-09-24T09:05:59.155Z,11.80
2022-09-24T09:09:06.694Z,10.00
2022-09-24T09:12:03.202Z,10.90
2022-09-24T09:14:57.671Z,10.60
2022-09-24T09:17:49.505Z,10.90
2022-09-24T09:20:42.911Z,10.10
2022-09-24T09:23:39.829Z,10.10
2022-09-24T09:26:31.137Z,9.70
2022-09-24T09:29:21.472Z,9.60
2022-09-24T09:32:20.896Z,10.00
2022-09-24T09:35:18.330Z,10.40
2022-09-24T09:38:17.182Z,9.80
2022-09-24T09:41:16.331Z,9.70
2022-09-24T09:44:14.056Z,9.80
2022-09-24T09:47:12.038Z,9.60
2022-09-24T09:50:11.726Z,10.00
2022-09-24T09:53:03.864Z,9.10
2022-09-24T09:55:55.967Z,8.80
2022-09-24T09:58:52.491Z,12.00
2022-09-24T10:01:43.801Z,9.30
2022-09-24T10:04:39.099Z,9.80
2022-09-24T10:07:31.007Z,10.60
2022-09-24T10:10:23.549Z,11.10
2022-09-24T10:13:14.964Z,10.20
2022-09-24T10:16:08.524Z,9.20
2022-09-24T10:18:58.938Z,9.70
2022-09-24T10:21:49.316Z,8.20
2022-09-24T10:24:41.974Z,7.60
2022-09-24T10:27:34.520Z,7.80
2022-09-24T10:30:34.616Z,7.30
2022-09-24T10:33:25.382Z,7.60
2022-09-24T10:36:20.163Z,5.90
2022-09-24T10:39:14.386Z,7.80
2022-09-24T10:42:07.343Z,7.70
2022-09-24T10:45:00.605Z,6.30
2022-09-24T10:47:53.600Z,6.40
2022-09-24T10:50:53.966Z,5.60
2022-09-24T10:53:52.981Z,6.40
2022-09-24T10:56:46.846Z,5.40
2022-09-24T10:59:46.899Z,5.60
2022-09-24T11:03:27.850Z,7.00
2022-09-24T11:06:22.840Z,6.60
2022-09-24T11:09:23.281Z,6.30
2022-09-24T11:12:19.955Z,4.80
2022-09-24T11:15:24.004Z,5.00
2022-09-24T11:18:29.244Z,4.60
2022-09-24T11:21:29.958Z,4.10
2022-09-24T11:24:44.944Z,5.20
2022-09-24T11:27:49.992Z,4.00
2022-09-24T11:30:47.425Z,4.80
2022-09-24T11:33:53.030Z,4.70
2022-09-24T11:37:02.959Z,4.50
2022-09-24T11:40:04.915Z,5.20
2022-09-24T11:43:05.285Z,5.20
2022-09-24T11:46:06.299Z,5.10
2022-09-24T11:49:22.768Z,4.10
2022-09-24T11:52:15.041Z,6.00
2022-09-24T11:55:16.046Z,4.80
2022-09-24T11:58:24.401Z,5.30
2022-09-24T12:01:17.719Z,5.60
2022-09-24T12:04:13.478Z,4.30
2022-09-24T12:07:12.287Z,5.20
2022-09-24T12:10:04.289Z,5.00
2022-09-24T12:12:59.616Z,4.40
2022-09-24T12:15:52.415Z,6.20
2022-09-24T12:18:47.505Z,4.50
2022-09-24T12:21:40.587Z,6.20
2022-09-24T12:24:34.723Z,5.00
2022-09-24T12:27:31.451Z,4.40
2022-09-24T12:30:48.768Z,4.30
2022-09-24T12:33:43.477Z,4.40
2022-09-24T12:36:57.290Z,5.10
2022-09-24T12:39:50.318Z,4.60
2022-09-24T12:42:43.379Z,4.90
2022-09-24T12:45:34.698Z,4.90
2022-09-24T12:48:25.225Z,5.10
2022-09-24T12:51:15.649Z,5.00
2022-09-24T12:54:27.239Z,4.70
2022-09-24T12:57:25.013Z,6.20
2022-09-24T13:00:49.033Z,5.20
2022-09-24T13:03:46.221Z,5.20
2022-09-24T13:06:39.652Z,5.40
2022-09-24T13:09:36.996Z,5.10
2022-09-24T13:12:33.633Z,5.30
2022-09-24T13:15:31.952Z,5.00
2022-09-24T13:18:23.583Z,5.30
2022-09-24T13:21:24.949Z,4.90
2022-09-24T13:24:26.898Z,4.70
2022-09-24T13:27:37.055Z,4.20
2022-09-24T13:30:35.726Z,5.00
2022-09-24T13:33:30.296Z,6.30
2022-09-24T13:36:26.197Z,5.10
2022-09-24T13:42:25.531Z,4.10
2022-09-24T13:45:19.028Z,5.30
2022-09-24T13:48:18.100Z,4.90
2022-09-24T13:51:12.193Z,5.10
2022-09-24T13:54:07.906Z,5.20
2022-09-24T13:57:09.363Z,5.60
2022-09-24T14:00:19.460Z,5.40
2022-09-24T14:03:21.892Z,6.50
2022-09-24T14:06:15.327Z,4.40
2022-09-24T14:09:17.062Z,4.00
2022-09-24T14:12:21.344Z,6.40
2022-09-24T14:15:16.087Z,5.50
2022-09-24T14:18:12.078Z,4.70
2022-09-24T14:21:06.965Z,5.20
2022-09-24T14:23:59.967Z,4.90
2022-09-24T14:26:52.964Z,4.70
2022-09-24T14:29:48.479Z,5.40
2022-09-24T14:32:40.468Z,5.50
2022-09-24T14:35:32.797Z,5.40
2022-09-24T14:38:25.648Z,5.20
2022-09-24T14:41:19.037Z,5.50
2022-09-24T14:44:12.953Z,6.10
2022-09-24T14:47:03.330Z,5.20
2022-09-24T14:49:53.664Z,6.00
2022-09-24T14:52:43.944Z,5.90
2022-09-24T14:55:41.728Z,6.20
2022-09-24T14:58:36.247Z,6.40
2022-09-24T15:01:31.098Z,6.30
2022-09-24T15:04:23.842Z,5.70
2022-09-24T15:07:22.990Z,5.80
2022-09-24T15:10:21.498Z,7.40
2022-09-24T15:13:15.911Z,5.40
2022-09-24T15:16:18.325Z,6.10
2022-09-24T15:19:19.854Z,7.40
2022-09-24T15:22:10.440Z,7.70
2022-09-24T15:25:02.228Z,7.20
2022-09-24T15:27:54.210Z,6.10
2022-09-24T15:30:45.118Z,6.10
2022-09-24T15:33:36.156Z,7.60
2022-09-24T15:36:27.156Z,7.20
2022-09-24T15:39:17.618Z,7.60
2022-09-24T15:42:09.082Z,7.30
2022-09-24T15:44:59.557Z,7.40
2022-09-24T15:47:50.224Z,7.80
2022-09-24T15:50:40.603Z,8.40
2022-09-24T15:53:31.383Z,8.90
2022-09-24T15:56:21.752Z,9.00
2022-09-24T15:59:14.237Z,8.50
2022-09-24T16:02:07.083Z,8.30
2022-09-24T16:05:02.831Z,8.30
2022-09-24T16:07:54.516Z,9.30
2022-09-24T16:10:45.116Z,9.60
2022-09-24T16:13:35.434Z,9.90
2022-09-24T16:16:25.808Z,9.40
2022-09-24T16:19:16.293Z,11.70
2022-09-24T16:22:06.615Z,10.80
2022-09-24T16:24:56.917Z,10.70
2022-09-24T16:27:47.820Z,10.50
2022-09-24T16:30:38.998Z,11.50
2022-09-24T16:33:29.322Z,9.40
2022-09-24T16:36:20.178Z,10.80
2022-09-24T16:39:11.526Z,9.60
2022-09-24T16:42:01.890Z,10.50
2022-09-24T16:44:52.337Z,9.60
2022-09-24T16:47:42.724Z,10.20
2022-09-24T16:50:33.877Z,9.50
2022-09-24T16:53:24.974Z,10.40
2022-09-24T16:56:16.819Z,10.20
2022-09-24T16:59:07.435Z,9.10
2022-09-24T17:02:00.324Z,9.70
2022-09-24T17:04:54.124Z,10.70
2022-09-24T17:07:45.246Z,10.00
2022-09-24T17:10:35.673Z,9.50
2022-09-24T17:13:26.030Z,10.00
2022-09-24T17:16:17.604Z,9.80
2022-09-24T17:19:08.846Z,9.20
2022-09-24T17:21:59.234Z,9.40
2022-09-24T17:24:50.121Z,8.90
2022-09-24T17:27:40.460Z,11.50
2022-09-24T17:30:30.798Z,10.00
2022-09-24T17:33:42.418Z,9.00
2022-09-24T17:36:32.323Z,9.10
2022-09-24T17:39:22.764Z,9.90
2022-09-24T17:42:14.527Z,8.90
2022-09-24T17:45:09.600Z,9.20
2022-09-24T17:48:00.524Z,9.80
2022-09-24T17:50:56.172Z,11.60
2022-09-24T17:53:46.832Z,11.20
2022-09-24T17:56:38.426Z,11.90
2022-09-24T17:59:30.349Z,10.60
2022-09-24T18:02:20.728Z,11.30
2022-09-24T18:05:11.886Z,11.50
2022-09-24T18:08:02.737Z,11.70
2022-09-24T18:11:03.132Z,11.60
2022-09-24T18:13:55.688Z,11.80
2022-09-24T18:16:46.192Z,10.90
2022-09-24T18:19:36.526Z,11.80
2022-09-24T18:22:28.130Z,13.60
2022-09-24T18:25:20.633Z,13.30
2022-09-24T18:28:16.468Z,13.60
2022-09-24T18:31:10.352Z,13.80
2022-09-24T18:34:05.214Z,13.40
2022-09-24T18:36:56.112Z,12.90
2022-09-24T18:39:46.681Z,12.30
2022-09-24T18:42:37.117Z,11.40
2022-09-24T18:45:28.928Z,13.80
2022-09-24T18:48:19.255Z,17.80
2022-09-24T18:51:15.792Z,18.60
2022-09-24T18:54:07.767Z,19.50
2022-09-24T18:56:58.297Z,21.00
2022-09-24T18:59:49.330Z,22.80
2022-09-24T19:02:39.989Z,16.10
2022-09-24T19:05:30.740Z,15.00
2022-09-24T19:08:24.957Z,18.70
2022-09-24T19:11:15.853Z,23.60
2022-09-24T19:14:06.275Z,19.60
2022-09-24T19:16:56.961Z,24.30
2022-09-24T19:19:52.164Z,22.70
2022-09-24T19:22:49.182Z,18.50
2022-09-24T19:25:41.090Z,20.80
2022-09-24T19:28:31.809Z,20.40
2022-09-24T19:31:24.321Z,18.80
2022-09-24T19:34:15.008Z,19.90
2022-09-24T19:37:08.471Z,18.20
2022-09-24T19:39:58.820Z,17.60
2022-09-24T19:42:49.348Z,19.90
2022-09-24T19:45:39.987Z,21.50
2022-09-24T19:48:32.161Z,22.70
2022-09-24T19:51:24.132Z,23.50
2022-09-24T19:54:14.710Z,26.40
2022-09-24T19:57:05.753Z,22.10
2022-09-24T19:59:56.504Z,23.10
2022-09-24T20:02:56.565Z,21.60
2022-09-24T20:05:47.887Z,19.10
2022-09-24T20:08:39.052Z,22.30
2022-09-24T20:11:34.719Z,18.00
2022-09-24T20:14:29.161Z,18.60
2022-09-24T20:17:23.896Z,22.30
2022-09-24T20:20:18.863Z,23.60
2022-09-24T20:23:10.197Z,20.20
2022-09-24T20:26:18.813Z,21.10
2022-09-24T20:29:10.088Z,20.20
2022-09-24T20:32:00.806Z,19.10
2022-09-24T20:34:52.908Z,20.40
2022-09-24T20:37:44.330Z,21.50
2022-09-24T20:40:36.281Z,21.30
2022-09-24T20:43:28.130Z,20.50
2022-09-24T20:46:21.240Z,21.00
2022-09-24T20:49:16.516Z,23.80
2022-09-24T20:52:11.148Z,22.00
2022-09-24T20:55:01.800Z,21.20
2022-09-24T20:57:54.369Z,21.80
2022-09-24T21:00:53.859Z,21.00
2022-09-24T21:03:47.170Z,21.60
2022-09-24T21:06:38.437Z,21.10
2022-09-24T21:09:29.213Z,22.20
2022-09-24T21:12:21.249Z,22.70
2022-09-24T21:15:15.021Z,22.20
2022-09-24T21:18:22.313Z,21.00
2022-09-24T21:21:15.625Z,21.50
2022-09-24T21:24:07.726Z,22.00
2022-09-24T21:26:59.433Z,21.30
2022-09-24T21:29:49.994Z,21.10
2022-09-24T21:32:41.782Z,21.00
2022-09-24T21:35:32.519Z,22.00
2022-09-24T21:38:22.924Z,22.10
2022-09-24T21:41:13.774Z,21.60
2022-09-24T21:44:05.345Z,20.60
2022-09-24T21:46:55.634Z,21.80
2022-09-24T21:49:47.557Z,22.60
2022-09-24T21:52:39.051Z,21.00
2022-09-24T21:55:34.593Z,20.70
2022-09-24T21:58:24.937Z,19.60
2022-09-24T22:01:17.573Z,20.00
2022-09-24T22:04:08.408Z,19.60
2022-09-24T22:06:59.002Z,20.70
2022-09-24T22:09:49.461Z,20.10
2022-09-24T22:12:39.793Z,19.50
2022-09-24T22:15:31.278Z,21.50
2022-09-24T22:18:21.560Z,19.20
2022-09-24T22:21:13.479Z,19.90
2022-09-24T22:24:04.792Z,19.90
2022-09-24T22:26:55.347Z,21.20
2022-09-24T22:29:46.404Z,19.80
2022-09-24T22:32:36.660Z,19.60
2022-09-24T22:35:45.464Z,20.00
2022-09-24T22:38:36.218Z,19.60
2022-09-24T22:41:28.157Z,19.60
2022-09-24T22:44:19.365Z,18.60
2022-09-24T22:47:09.691Z,19.40
2022-09-24T22:50:00.342Z,18.70
2022-09-24T22:52:51.469Z,19.70
2022-09-24T22:55:41.757Z,18.50
2022-09-24T22:58:33.088Z,19.50
2022-09-24T23:01:25.026Z,19.30
2022-09-24T23:04:18.367Z,18.80
2022-09-24T23:07:08.647Z,19.40
2022-09-24T23:09:59.271Z,18.90
2022-09-24T23:12:49.875Z,18.20
2022-09-24T23:15:40.778Z,19.10
2022-09-24T23:18:31.235Z,18.30
2022-09-24T23:21:22.227Z,18.90
2022-09-24T23:24:16.175Z,18.30
2022-09-24T23:27:06.554Z,18.80
2022-09-24T23:29:57.062Z,17.70
2022-09-24T23:32:47.432Z,18.80
2022-09-24T23:35:37.684Z,18.40
2022-09-24T23:38:28.017Z,17.80
2022-09-24T23:41:18.360Z,16.90
2022-09-24T23:44:09.772Z,18.70
2022-09-24T23:47:00.345Z,18.00
2022-09-24T23:49:50.642Z,18.60
2022-09-24T23:52:40.902Z,17.30
2022-09-24T23:55:31.172Z,17.30
2022-09-24T23:58:22.820Z,17.00
